sensor_id;sensor_type;location;lat;lon;timestamp;pressure;altitude;pressure_sealevel;temperature;humidity
34742;BME280;20968;42.696;23.360;2022-09-01T00:00:26;95061.88;;;21.13;72.23
34742;BME280;20968;42.696;23.360;2022-09-01T00:02:54;95058.72;;;21.17;71.82
34742;BME280;20968;42.696;23.360;2022-09-01T00:05:41;95055.16;;;21.16;71.80
34742;BME280;20968;42.696;23.360;2022-09-01T00:08:34;95057.06;;;21.21;71.25
34742;BME280;20968;42.696;23.360;2022-09-01T00:11:25;95057.97;;;21.16;71.52
34742;BME280;20968;42.696;23.360;2022-09-01T00:13:52;95054.00;;;21.12;71.43
34742;BME280;20968;42.696;23.360;2022-09-01T00:16:19;95055.38;;;21.18;70.92
34742;BME280;20968;42.696;23.360;2022-09-01T00:18:56;95052.97;;;21.22;71.11
34742;BME280;20968;42.696;23.360;2022-09-01T00:21:42;95050.09;;;21.15;71.09
34742;BME280;20968;42.696;23.360;2022-09-01T00:26:42;95048.06;;;21.15;70.78
34742;BME280;20968;42.696;23.360;2022-09-01T00:29:08;95045.41;;;21.10;70.79
34742;BME280;20968;42.696;23.360;2022-09-01T00:31:35;95045.47;;;21.17;70.42
34742;BME280;20968;42.696;23.360;2022-09-01T00:34:02;95047.28;;;21.15;70.60
34742;BME280;20968;42.696;23.360;2022-09-01T00:36:28;95046.16;;;21.11;70.80
34742;BME280;20968;42.696;23.360;2022-09-01T00:39:00;95049.50;;;21.09;70.53
34742;BME280;20968;42.696;23.360;2022-09-01T00:41:35;95051.56;;;21.09;70.74
34742;BME280;20968;42.696;23.360;2022-09-01T00:44:26;95053.59;;;21.08;70.53
34742;BME280;20968;42.696;23.360;2022-09-01T00:46:54;95063.66;;;21.04;70.86
34742;BME280;20968;42.696;23.360;2022-09-01T00:49:41;95063.25;;;21.00;71.07
34742;BME280;20968;42.696;23.360;2022-09-01T00:52:14;95058.97;;;20.99;70.79
34742;BME280;20968;42.696;23.360;2022-09-01T00:54:44;95068.13;;;20.99;70.55
34742;BME280;20968;42.696;23.360;2022-09-01T00:57:21;95069.94;;;20.97;70.82
34742;BME280;20968;42.696;23.360;2022-09-01T01:00:17;95071.81;;;20.94;70.96
34742;BME280;20968;42.696;23.360;2022-09-01T01:02:43;95071.06;;;20.94;70.81
34742;BME280;20968;42.696;23.360;2022-09-01T01:05:10;95068.41;;;20.88;71.02
34742;BME280;20968;42.696;23.360;2022-09-01T01:07:36;95069.56;;;20.93;70.51
34742;BME280;20968;42.696;23.360;2022-09-01T01:10:08;95069.13;;;20.89;70.63
34742;BME280;20968;42.696;23.360;2022-09-01T01:12:39;95074.56;;;20.87;71.00
34742;BME280;20968;42.696;23.360;2022-09-01T01:15:08;95069.84;;;20.82;71.02
34742;BME280;20968;42.696;23.360;2022-09-01T01:17:35;95066.50;;;20.83;70.88
34742;BME280;20968;42.696;23.360;2022-09-01T01:20:02;95067.25;;;20.84;71.11
34742;BME280;20968;42.696;23.360;2022-09-01T01:25:57;95059.75;;;20.79;70.94
34742;BME280;20968;42.696;23.360;2022-09-01T01:28:30;95062.53;;;20.79;70.98
34742;BME280;20968;42.696;23.360;2022-09-01T01:33:36;95077.19;;;20.72;71.23
34742;BME280;20968;42.696;23.360;2022-09-01T01:36:10;95078.97;;;20.62;71.28
34742;BME280;20968;42.696;23.360;2022-09-01T01:38:44;95072.94;;;20.58;71.54
34742;BME280;20968;42.696;23.360;2022-09-01T01:41:13;95073.25;;;20.67;71.59
34742;BME280;20968;42.696;23.360;2022-09-01T01:43:39;95070.78;;;20.64;71.05
34742;BME280;20968;42.696;23.360;2022-09-01T01:46:08;95075.28;;;20.67;70.92
34742;BME280;20968;42.696;23.360;2022-09-01T01:48:41;95062.91;;;20.62;70.86
34742;BME280;20968;42.696;23.360;2022-09-01T01:51:10;95072.22;;;20.57;71.37
34742;BME280;20968;42.696;23.360;2022-09-01T01:53:38;95083.06;;;20.61;71.58
34742;BME280;20968;42.696;23.360;2022-09-01T01:56:07;95097.28;;;20.63;71.40
34742;BME280;20968;42.696;23.360;2022-09-01T01:58:55;95086.75;;;20.56;71.23
34742;BME280;20968;42.696;23.360;2022-09-01T02:01:27;95085.13;;;20.60;71.14
34742;BME280;20968;42.696;23.360;2022-09-01T02:03:58;95095.56;;;20.60;71.40
34742;BME280;20968;42.696;23.360;2022-09-01T02:06:31;95092.75;;;20.60;71.35
34742;BME280;20968;42.696;23.360;2022-09-01T02:09:00;95098.78;;;20.64;71.14
34742;BME280;20968;42.696;23.360;2022-09-01T02:11:33;95096.31;;;20.60;71.14
34742;BME280;20968;42.696;23.360;2022-09-01T02:14:02;95105.25;;;20.59;71.30
34742;BME280;20968;42.696;23.360;2022-09-01T02:16:30;95096.84;;;20.59;70.88
34742;BME280;20968;42.696;23.360;2022-09-01T02:18:57;95095.16;;;20.56;70.98
34742;BME280;20968;42.696;23.360;2022-09-01T02:21:23;95099.50;;;20.44;71.31
34742;BME280;20968;42.696;23.360;2022-09-01T02:24:12;95098.66;;;20.36;71.46
34742;BME280;20968;42.696;23.360;2022-09-01T02:26:40;95092.00;;;20.39;71.30
34742;BME280;20968;42.696;23.360;2022-09-01T02:29:10;95100.88;;;20.50;71.42
34742;BME280;20968;42.696;23.360;2022-09-01T02:31:44;95100.88;;;20.50;70.96
34742;BME280;20968;42.696;23.360;2022-09-01T02:34:10;95095.28;;;20.50;71.77
34742;BME280;20968;42.696;23.360;2022-09-01T02:36:56;95091.94;;;20.52;71.46
34742;BME280;20968;42.696;23.360;2022-09-01T02:39:27;95093.56;;;20.47;71.63
34742;BME280;20968;42.696;23.360;2022-09-01T02:41:53;95089.25;;;20.46;71.62
34742;BME280;20968;42.696;23.360;2022-09-01T02:44:19;95088.19;;;20.49;71.48
34742;BME280;20968;42.696;23.360;2022-09-01T02:46:47;95084.97;;;20.45;71.61
34742;BME280;20968;42.696;23.360;2022-09-01T02:49:15;95078.41;;;20.43;71.85
34742;BME280;20968;42.696;23.360;2022-09-01T02:51:48;95078.41;;;20.43;71.90
34742;BME280;20968;42.696;23.360;2022-09-01T02:54:16;95078.63;;;20.45;71.49
34742;BME280;20968;42.696;23.360;2022-09-01T02:56:44;95079.91;;;20.44;71.67
34742;BME280;20968;42.696;23.360;2022-09-01T02:59:19;95079.38;;;20.45;71.78
34742;BME280;20968;42.696;23.360;2022-09-01T03:01:45;95077.31;;;20.46;71.55
34742;BME280;20968;42.696;23.360;2022-09-01T03:04:13;95066.47;;;20.42;71.73
34742;BME280;20968;42.696;23.360;2022-09-01T03:06:38;95073.03;;;20.45;71.54
34742;BME280;20968;42.696;23.360;2022-09-01T03:09:17;95067.56;;;20.39;71.74
34742;BME280;20968;42.696;23.360;2022-09-01T03:12:06;95068.31;;;20.40;71.77
34742;BME280;20968;42.696;23.360;2022-09-01T03:14:32;95071.34;;;20.42;71.70
34742;BME280;20968;42.696;23.360;2022-09-01T03:16:59;95073.16;;;20.39;71.12
34742;BME280;20968;42.696;23.360;2022-09-01T03:19:34;95086.63;;;20.41;71.63
34742;BME280;20968;42.696;23.360;2022-09-01T03:22:12;95073.50;;;20.36;71.12
34742;BME280;20968;42.696;23.360;2022-09-01T03:24:37;95077.72;;;20.30;71.17
34742;BME280;20968;42.696;23.360;2022-09-01T03:27:06;95079.16;;;20.23;71.38
34742;BME280;20968;42.696;23.360;2022-09-01T03:29:35;95072.66;;;20.08;71.66
34742;BME280;20968;42.696;23.360;2022-09-01T03:32:03;95080.28;;;20.07;71.79
34742;BME280;20968;42.696;23.360;2022-09-01T03:34:28;95081.03;;;20.08;71.80
34742;BME280;20968;42.696;23.360;2022-09-01T03:36:53;95082.31;;;19.94;72.27
34742;BME280;20968;42.696;23.360;2022-09-01T03:39:20;95078.16;;;19.87;71.78
34742;BME280;20968;42.696;23.360;2022-09-01T03:41:46;95076.47;;;19.71;72.22
34742;BME280;20968;42.696;23.360;2022-09-01T03:44:15;95082.59;;;19.70;71.95
34742;BME280;20968;42.696;23.360;2022-09-01T03:46:47;95080.16;;;19.66;72.22
34742;BME280;20968;42.696;23.360;2022-09-01T03:55:56;95079.41;;;19.53;72.97
34742;BME280;20968;42.696;23.360;2022-09-01T03:58:24;95085.94;;;19.55;72.94
34742;BME280;20968;42.696;23.360;2022-09-01T04:00:52;95090.88;;;19.62;73.26
34742;BME280;20968;42.696;23.360;2022-09-01T04:03:20;95095.25;;;19.71;72.94
34742;BME280;20968;42.696;23.360;2022-09-01T04:05:53;95083.69;;;19.54;73.58
34742;BME280;20968;42.696;23.360;2022-09-01T04:08:20;95087.56;;;19.51;73.64
34742;BME280;20968;42.696;23.360;2022-09-01T04:10:53;95104.78;;;19.55;74.13
34742;BME280;20968;42.696;23.360;2022-09-01T04:13:29;95088.75;;;19.43;74.17
34742;BME280;20968;42.696;23.360;2022-09-01T04:15:59;95085.53;;;19.26;74.94
34742;BME280;20968;42.696;23.360;2022-09-01T04:18:29;95093.59;;;19.16;76.23
34742;BME280;20968;42.696;23.360;2022-09-01T04:20:58;95079.91;;;19.00;76.89
34742;BME280;20968;42.696;23.360;2022-09-01T04:23:26;95084.41;;;19.03;77.12
34742;BME280;20968;42.696;23.360;2022-09-01T04:28:35;95092.19;;;19.23;77.10
34742;BME280;20968;42.696;23.360;2022-09-01T04:31:04;95076.59;;;19.27;76.75
34742;BME280;20968;42.696;23.360;2022-09-01T04:33:39;95085.09;;;19.35;76.66
34742;BME280;20968;42.696;23.360;2022-09-01T04:36:15;95080.72;;;19.39;76.95
34742;BME280;20968;42.696;23.360;2022-09-01T04:38:51;95085.00;;;19.53;76.39
34742;BME280;20968;42.696;23.360;2022-09-01T04:41:30;95086.50;;;19.28;76.28
34742;BME280;20968;42.696;23.360;2022-09-01T04:44:00;95079.47;;;19.09;76.83
34742;BME280;20968;42.696;23.360;2022-09-01T04:46:30;95084.41;;;19.03;77.47
34742;BME280;20968;42.696;23.360;2022-09-01T04:49:04;95075.28;;;19.02;77.86
34742;BME280;20968;42.696;23.360;2022-09-01T04:51:39;95082.91;;;19.02;77.78
34742;BME280;20968;42.696;23.360;2022-09-01T04:54:06;95091.19;;;18.94;78.74
34742;BME280;20968;42.696;23.360;2022-09-01T04:56:50;95075.91;;;18.95;78.72
34742;BME280;20968;42.696;23.360;2022-09-01T04:59:22;95078.63;;;19.14;78.05
34742;BME280;20968;42.696;23.360;2022-09-01T05:01:55;95085.53;;;19.26;78.31
34742;BME280;20968;42.696;23.360;2022-09-01T05:04:24;95081.88;;;19.44;78.13
34742;BME280;20968;42.696;23.360;2022-09-01T05:06:56;95090.38;;;19.38;76.67
34742;BME280;20968;42.696;23.360;2022-09-01T05:09:32;95084.03;;;19.25;76.71
34742;BME280;20968;42.696;23.360;2022-09-01T05:12:25;95081.53;;;19.34;77.36
34742;BME280;20968;42.696;23.360;2022-09-01T05:14:56;95087.66;;;19.46;77.00
34742;BME280;20968;42.696;23.360;2022-09-01T05:17:43;95078.84;;;19.54;77.00
34742;BME280;20968;42.696;23.360;2022-09-01T05:20:12;95083.56;;;19.72;76.30
34742;BME280;20968;42.696;23.360;2022-09-01T05:22:38;95082.28;;;19.60;76.62
34742;BME280;20968;42.696;23.360;2022-09-01T05:25:06;95082.19;;;19.40;77.20
34742;BME280;20968;42.696;23.360;2022-09-01T05:27:45;95081.47;;;19.27;77.67
34742;BME280;20968;42.696;23.360;2022-09-01T05:30:15;95081.44;;;19.52;77.26
34742;BME280;20968;42.696;23.360;2022-09-01T05:32:48;95087.88;;;19.48;76.90
34742;BME280;20968;42.696;23.360;2022-09-01T05:35:17;95075.22;;;19.34;77.59
34742;BME280;20968;42.696;23.360;2022-09-01T05:37:44;95078.88;;;19.29;78.01
34742;BME280;20968;42.696;23.360;2022-09-01T05:40:13;95075.66;;;19.12;78.31
34742;BME280;20968;42.696;23.360;2022-09-01T05:42:41;95073.38;;;19.10;78.69
34742;BME280;20968;42.696;23.360;2022-09-01T05:45:08;95071.25;;;19.16;78.75
34742;BME280;20968;42.696;23.360;2022-09-01T05:47:41;95077.25;;;19.46;78.37
34742;BME280;20968;42.696;23.360;2022-09-01T05:50:07;95081.63;;;19.67;77.49
34742;BME280;20968;42.696;23.360;2022-09-01T05:52:39;95083.53;;;19.85;76.74
34742;BME280;20968;42.696;23.360;2022-09-01T05:55:05;95082.38;;;19.68;76.57
34742;BME280;20968;42.696;23.360;2022-09-01T05:57:42;95087.72;;;19.79;76.54
34742;BME280;20968;42.696;23.360;2022-09-01T06:00:12;95080.63;;;19.91;76.27
34742;BME280;20968;42.696;23.360;2022-09-01T06:02:38;95085.13;;;20.07;75.02
34742;BME280;20968;42.696;23.360;2022-09-01T06:05:19;95087.09;;;19.99;75.22
34742;BME280;20968;42.696;23.360;2022-09-01T06:07:46;95071.75;;;20.13;74.81
34742;BME280;20968;42.696;23.360;2022-09-01T06:10:16;95067.19;;;20.02;74.69
34742;BME280;20968;42.696;23.360;2022-09-01T06:12:42;95067.63;;;19.80;75.82
34742;BME280;20968;42.696;23.360;2022-09-01T06:15:11;95069.13;;;19.94;75.81
34742;BME280;20968;42.696;23.360;2022-09-01T06:17:40;95063.59;;;20.15;74.63
34742;BME280;20968;42.696;23.360;2022-09-01T06:20:06;95066.66;;;20.24;74.61
34742;BME280;20968;42.696;23.360;2022-09-01T06:22:52;95080.25;;;20.40;74.33
34742;BME280;20968;42.696;23.360;2022-09-01T06:25:19;95077.13;;;20.44;74.20
34742;BME280;20968;42.696;23.360;2022-09-01T06:27:51;95075.69;;;20.50;73.59
34742;BME280;20968;42.696;23.360;2022-09-01T06:30:19;95082.59;;;20.70;73.11
34742;BME280;20968;42.696;23.360;2022-09-01T06:32:47;95087.25;;;20.67;72.75
34742;BME280;20968;42.696;23.360;2022-09-01T06:35:20;95080.63;;;20.78;72.78
34742;BME280;20968;42.696;23.360;2022-09-01T06:37:46;95079.22;;;20.84;72.19
34742;BME280;20968;42.696;23.360;2022-09-01T06:40:14;95070.94;;;20.79;73.02
34742;BME280;20968;42.696;23.360;2022-09-01T06:42:49;95069.19;;;20.55;73.71
34742;BME280;20968;42.696;23.360;2022-09-01T06:45:17;95064.91;;;20.34;73.73
34742;BME280;20968;42.696;23.360;2022-09-01T06:47:45;95064.88;;;20.88;72.91
34742;BME280;20968;42.696;23.360;2022-09-01T06:50:14;95066.16;;;20.87;72.22
34742;BME280;20968;42.696;23.360;2022-09-01T06:52:42;95072.34;;;20.93;71.94
34742;BME280;20968;42.696;23.360;2022-09-01T06:55:09;95072.84;;;21.12;71.71
34742;BME280;20968;42.696;23.360;2022-09-01T06:57:36;95065.16;;;21.05;71.08
34742;BME280;20968;42.696;23.360;2022-09-01T07:00:07;95070.56;;;21.30;70.94
34742;BME280;20968;42.696;23.360;2022-09-01T07:02:43;95067.44;;;21.41;69.65
34742;BME280;20968;42.696;23.360;2022-09-01T07:05:12;95075.09;;;21.61;68.91
34742;BME280;20968;42.696;23.360;2022-09-01T07:07:49;95072.13;;;21.67;69.25
34742;BME280;20968;42.696;23.360;2022-09-01T07:10:17;95074.66;;;21.92;68.23
34742;BME280;20968;42.696;23.360;2022-09-01T07:12:49;95078.66;;;22.04;68.62
34742;BME280;20968;42.696;23.360;2022-09-01T07:15:18;95070.81;;;22.18;68.53
34742;BME280;20968;42.696;23.360;2022-09-01T07:17:52;95073.06;;;22.19;68.10
34742;BME280;20968;42.696;23.360;2022-09-01T07:20:23;95068.88;;;22.56;66.11
34742;BME280;20968;42.696;23.360;2022-09-01T07:22:49;95056.34;;;22.72;66.25
34742;BME280;20968;42.696;23.360;2022-09-01T07:25:16;95065.91;;;22.98;65.31
34742;BME280;20968;42.696;23.360;2022-09-01T07:27:43;95072.28;;;22.91;64.66
34742;BME280;20968;42.696;23.360;2022-09-01T07:30:21;95070.41;;;23.16;65.45
34742;BME280;20968;42.696;23.360;2022-09-01T07:32:47;95067.41;;;23.22;63.76
34742;BME280;20968;42.696;23.360;2022-09-01T07:35:17;95064.81;;;23.31;63.79
34742;BME280;20968;42.696;23.360;2022-09-01T07:37:44;95066.63;;;23.51;62.75
34742;BME280;20968;42.696;23.360;2022-09-01T07:40:12;95068.31;;;23.39;62.72
34742;BME280;20968;42.696;23.360;2022-09-01T07:42:47;95062.53;;;23.37;62.50
34742;BME280;20968;42.696;23.360;2022-09-01T07:45:15;95066.47;;;23.34;62.97
34742;BME280;20968;42.696;23.360;2022-09-01T07:47:43;95060.81;;;23.56;62.77
34742;BME280;20968;42.696;23.360;2022-09-01T07:50:10;95057.75;;;23.77;62.79
34742;BME280;20968;42.696;23.360;2022-09-01T07:52:39;95059.75;;;23.99;61.89
34742;BME280;20968;42.696;23.360;2022-09-01T07:55:12;95056.31;;;24.08;60.69
34742;BME280;20968;42.696;23.360;2022-09-01T07:57:39;95050.03;;;23.85;61.69
34742;BME280;20968;42.696;23.360;2022-09-01T08:00:08;95055.06;;;23.94;62.06
34742;BME280;20968;42.696;23.360;2022-09-01T08:02:35;95065.66;;;24.18;61.21
34742;BME280;20968;42.696;23.360;2022-09-01T08:05:07;95064.38;;;24.11;61.17
34742;BME280;20968;42.696;23.360;2022-09-01T08:07:34;95065.66;;;24.18;60.96
34742;BME280;20968;42.696;23.360;2022-09-01T08:10:00;95065.13;;;24.12;60.67
34742;BME280;20968;42.696;23.360;2022-09-01T08:12:25;95060.00;;;24.25;61.22
34742;BME280;20968;42.696;23.360;2022-09-01T08:14:51;95067.72;;;24.56;60.83
34742;BME280;20968;42.696;23.360;2022-09-01T08:17:17;95065.09;;;24.58;59.72
34742;BME280;20968;42.696;23.360;2022-09-01T08:19:44;95055.44;;;24.69;59.14
34742;BME280;20968;42.696;23.360;2022-09-01T08:22:11;95053.59;;;24.88;58.76
34742;BME280;20968;42.696;23.360;2022-09-01T08:24:36;95049.28;;;25.12;58.56
34742;BME280;20968;42.696;23.360;2022-09-01T08:27:02;95058.41;;;25.44;58.06
34742;BME280;20968;42.696;23.360;2022-09-01T08:29:28;95056.91;;;25.43;56.82
34742;BME280;20968;42.696;23.360;2022-09-01T08:31:54;95051.72;;;25.15;57.74
34742;BME280;20968;42.696;23.360;2022-09-01T08:34:19;95039.63;;;24.98;57.58
34742;BME280;20968;42.696;23.360;2022-09-01T08:36:45;95046.84;;;25.08;59.21
34742;BME280;20968;42.696;23.360;2022-09-01T08:39:12;95036.72;;;25.29;57.76
34742;BME280;20968;42.696;23.360;2022-09-01T08:41:46;95039.47;;;25.20;57.11
34742;BME280;20968;42.696;23.360;2022-09-01T08:44:34;95041.97;;;25.09;56.99
34742;BME280;20968;42.696;23.360;2022-09-01T08:47:10;95039.69;;;25.15;56.48
34742;BME280;20968;42.696;23.360;2022-09-01T08:49:37;95045.09;;;25.37;56.79
34742;BME280;20968;42.696;23.360;2022-09-01T08:52:23;95042.97;;;25.62;56.97
34742;BME280;20968;42.696;23.360;2022-09-01T08:55:18;95034.50;;;25.62;55.09
34742;BME280;20968;42.696;23.360;2022-09-01T08:57:46;95036.03;;;25.80;53.47
34742;BME280;20968;42.696;23.360;2022-09-01T09:00:16;95031.38;;;25.92;53.79
34742;BME280;20968;42.696;23.360;2022-09-01T09:03:09;95029.41;;;26.28;54.33
34742;BME280;20968;42.696;23.360;2022-09-01T09:08:47;95020.09;;;26.61;53.93
34742;BME280;20968;42.696;23.360;2022-09-01T09:20:32;95005.31;;;27.25;51.89
34742;BME280;20968;42.696;23.360;2022-09-01T09:30:00;95000.88;;;27.41;50.03
34742;BME280;20968;42.696;23.360;2022-09-01T09:39:39;94977.16;;;28.31;48.36
34742;BME280;20968;42.696;23.360;2022-09-01T09:42:09;94977.19;;;28.21;47.86
34742;BME280;20968;42.696;23.360;2022-09-01T09:58:56;94978.66;;;28.81;45.17
34742;BME280;20968;42.696;23.360;2022-09-01T10:01:29;94975.81;;;28.81;43.91
34742;BME280;20968;42.696;23.360;2022-09-01T10:16:50;94956.56;;;29.10;43.46
34742;BME280;20968;42.696;23.360;2022-09-01T10:19:17;94958.50;;;29.37;44.12
34742;BME280;20968;42.696;23.360;2022-09-01T10:21:45;94955.13;;;29.50;44.37
34742;BME280;20968;42.696;23.360;2022-09-01T10:24:21;94954.16;;;29.57;44.60
34742;BME280;20968;42.696;23.360;2022-09-01T10:26:52;94957.41;;;29.84;44.36
34742;BME280;20968;42.696;23.360;2022-09-01T10:29:33;94951.06;;;30.06;43.83
34742;BME280;20968;42.696;23.360;2022-09-01T10:32:00;94951.03;;;29.95;42.73
34742;BME280;20968;42.696;23.360;2022-09-01T10:34:35;94950.75;;;30.23;41.93
34742;BME280;20968;42.696;23.360;2022-09-01T10:37:02;94946.31;;;30.32;41.91
34742;BME280;20968;42.696;23.360;2022-09-01T10:42:35;94938.38;;;30.19;40.09
34742;BME280;20968;42.696;23.360;2022-09-01T10:45:02;94938.81;;;29.72;41.36
34742;BME280;20968;42.696;23.360;2022-09-01T10:47:30;94933.88;;;29.72;41.76
34742;BME280;20968;42.696;23.360;2022-09-01T10:58:28;94925.06;;;30.33;40.04
34742;BME280;20968;42.696;23.360;2022-09-01T11:00:58;94929.22;;;30.53;39.76
34742;BME280;20968;42.696;23.360;2022-09-01T11:03:36;94925.81;;;30.45;38.96
34742;BME280;20968;42.696;23.360;2022-09-01T11:06:06;94923.56;;;30.32;39.10
34742;BME280;20968;42.696;23.360;2022-09-01T11:11:53;94910.31;;;30.13;39.90
34742;BME280;20968;42.696;23.360;2022-09-01T11:14:24;94905.16;;;30.33;39.56
34742;BME280;20968;42.696;23.360;2022-09-01T11:19:56;94905.06;;;31.11;37.93
34742;BME280;20968;42.696;23.360;2022-09-01T11:36:45;94901.03;;;31.86;36.85
34742;BME280;20968;42.696;23.360;2022-09-01T11:47:41;94858.28;;;31.62;36.67
34742;BME280;20968;42.696;23.360;2022-09-01T11:50:08;94857.81;;;31.78;37.02
34742;BME280;20968;42.696;23.360;2022-09-01T11:52:42;94851.38;;;32.03;36.61
34742;BME280;20968;42.696;23.360;2022-09-01T11:55:27;94860.13;;;31.82;37.05
34742;BME280;20968;42.696;23.360;2022-09-01T11:57:53;94859.13;;;31.64;38.41
34742;BME280;20968;42.696;23.360;2022-09-01T12:00:29;94849.03;;;31.38;37.95
34742;BME280;20968;42.696;23.360;2022-09-01T12:02:55;94846.44;;;31.42;38.05
34742;BME280;20968;42.696;23.360;2022-09-01T12:05:28;94848.84;;;31.59;37.51
34742;BME280;20968;42.696;23.360;2022-09-01T12:07:54;94852.41;;;31.71;39.65
34742;BME280;20968;42.696;23.360;2022-09-01T12:10:30;94846.09;;;31.36;40.48
34742;BME280;20968;42.696;23.360;2022-09-01T12:13:05;94855.53;;;31.52;41.10
34742;BME280;20968;42.696;23.360;2022-09-01T12:15:32;94843.41;;;31.63;40.40
34742;BME280;20968;42.696;23.360;2022-09-01T12:18:19;94848.72;;;31.68;40.93
34742;BME280;20968;42.696;23.360;2022-09-01T12:20:48;94848.53;;;31.78;40.03
34742;BME280;20968;42.696;23.360;2022-09-01T12:25:42;94843.16;;;31.59;40.92
34742;BME280;20968;42.696;23.360;2022-09-01T12:28:08;94845.69;;;31.42;40.80
34742;BME280;20968;42.696;23.360;2022-09-01T12:30:35;94839.09;;;31.14;41.02
34742;BME280;20968;42.696;23.360;2022-09-01T12:33:06;94846.41;;;30.94;42.02
34742;BME280;20968;42.696;23.360;2022-09-01T12:38:52;94837.81;;;31.29;42.11
34742;BME280;20968;42.696;23.360;2022-09-01T12:45:09;94832.47;;;31.35;40.77
34742;BME280;20968;42.696;23.360;2022-09-01T12:50:00;94833.19;;;30.87;42.17
34742;BME280;20968;42.696;23.360;2022-09-01T12:52:28;94831.00;;;30.75;42.58
34742;BME280;20968;42.696;23.360;2022-09-01T12:57:47;94834.66;;;30.08;43.26
34742;BME280;20968;42.696;23.360;2022-09-01T13:03:03;94816.94;;;29.87;43.95
34742;BME280;20968;42.696;23.360;2022-09-01T13:05:38;94815.34;;;29.84;44.40
34742;BME280;20968;42.696;23.360;2022-09-01T13:08:11;94821.81;;;30.19;43.46
34742;BME280;20968;42.696;23.360;2022-09-01T13:11:03;94822.47;;;30.29;44.11
34742;BME280;20968;42.696;23.360;2022-09-01T13:16:39;94805.41;;;30.52;42.51
34742;BME280;20968;42.696;23.360;2022-09-01T13:19:07;94808.13;;;30.50;42.94
34742;BME280;20968;42.696;23.360;2022-09-01T13:21:34;94802.44;;;30.61;43.26
34742;BME280;20968;42.696;23.360;2022-09-01T13:24:02;94798.22;;;30.62;41.64
34742;BME280;20968;42.696;23.360;2022-09-01T13:26:31;94797.22;;;30.69;41.51
34742;BME280;20968;42.696;23.360;2022-09-01T13:28:57;94802.13;;;30.80;42.59
34742;BME280;20968;42.696;23.360;2022-09-01T13:31:23;94809.06;;;30.88;40.74
34742;BME280;20968;42.696;23.360;2022-09-01T13:33:49;94801.63;;;30.83;41.03
34742;BME280;20968;42.696;23.360;2022-09-01T13:36:15;94805.22;;;30.84;41.21
34742;BME280;20968;42.696;23.360;2022-09-01T13:38:58;94795.72;;;30.80;41.57
34742;BME280;20968;42.696;23.360;2022-09-01T13:41:34;94808.00;;;30.48;42.04
34742;BME280;20968;42.696;23.360;2022-09-01T13:44:02;94806.78;;;30.51;41.88
34742;BME280;20968;42.696;23.360;2022-09-01T13:46:27;94806.00;;;30.39;42.43
34742;BME280;20968;42.696;23.360;2022-09-01T13:48:53;94810.13;;;30.47;42.10
34742;BME280;20968;42.696;23.360;2022-09-01T13:51:25;94811.31;;;30.21;40.70
34742;BME280;20968;42.696;23.360;2022-09-01T13:53:51;94805.75;;;30.01;40.84
34742;BME280;20968;42.696;23.360;2022-09-01T13:56:17;94806.31;;;29.88;42.54
34742;BME280;20968;42.696;23.360;2022-09-01T13:58:42;94806.44;;;29.90;42.11
34742;BME280;20968;42.696;23.360;2022-09-01T14:01:13;94805.84;;;29.91;43.93
34742;BME280;20968;42.696;23.360;2022-09-01T14:04:16;94793.69;;;29.79;44.88
34742;BME280;20968;42.696;23.360;2022-09-01T14:07:02;94791.31;;;29.64;46.02
34742;BME280;20968;42.696;23.360;2022-09-01T14:09:27;94799.34;;;29.68;46.47
34742;BME280;20968;42.696;23.360;2022-09-01T14:12:02;94798.03;;;29.36;46.63
34742;BME280;20968;42.696;23.360;2022-09-01T14:14:32;94812.47;;;29.40;46.77
34742;BME280;20968;42.696;23.360;2022-09-01T14:17:00;94802.34;;;29.17;46.66
34742;BME280;20968;42.696;23.360;2022-09-01T14:19:28;94809.69;;;28.99;46.41
34742;BME280;20968;42.696;23.360;2022-09-01T14:21:53;94810.34;;;28.67;48.36
34742;BME280;20968;42.696;23.360;2022-09-01T14:24:22;94811.69;;;28.66;47.74
34742;BME280;20968;42.696;23.360;2022-09-01T14:26:48;94805.63;;;28.30;48.74
34742;BME280;20968;42.696;23.360;2022-09-01T14:29:15;94811.53;;;28.13;49.67
34742;BME280;20968;42.696;23.360;2022-09-01T14:31:41;94805.59;;;27.99;50.33
34742;BME280;20968;42.696;23.360;2022-09-01T14:34:17;94809.72;;;27.77;51.26
34742;BME280;20968;42.696;23.360;2022-09-01T14:36:43;94803.31;;;27.67;51.94
34742;BME280;20968;42.696;23.360;2022-09-01T14:39:09;94815.84;;;27.64;52.94
34742;BME280;20968;42.696;23.360;2022-09-01T14:41:34;94809.28;;;27.53;52.61
34742;BME280;20968;42.696;23.360;2022-09-01T14:44:00;94812.59;;;27.49;52.58
34742;BME280;20968;42.696;23.360;2022-09-01T14:46:27;94816.34;;;27.23;53.54
34742;BME280;20968;42.696;23.360;2022-09-01T14:48:55;94803.72;;;27.05;54.11
34742;BME280;20968;42.696;23.360;2022-09-01T14:51:23;94813.38;;;27.12;54.01
34742;BME280;20968;42.696;23.360;2022-09-01T14:53:50;94816.66;;;27.18;54.37
34742;BME280;20968;42.696;23.360;2022-09-01T14:56:15;94813.53;;;27.14;54.29
34742;BME280;20968;42.696;23.360;2022-09-01T14:58:44;94809.81;;;27.02;54.96
34742;BME280;20968;42.696;23.360;2022-09-01T15:01:16;94814.69;;;26.92;55.79
34742;BME280;20968;42.696;23.360;2022-09-01T15:03:43;94817.34;;;26.90;55.86
34742;BME280;20968;42.696;23.360;2022-09-01T15:06:11;94811.41;;;26.86;55.81
34742;BME280;20968;42.696;23.360;2022-09-01T15:08:38;94819.28;;;26.78;55.68
34742;BME280;20968;42.696;23.360;2022-09-01T15:11:08;94818.25;;;26.83;55.41
34742;BME280;20968;42.696;23.360;2022-09-01T15:13:35;94810.22;;;26.89;54.74
34742;BME280;20968;42.696;23.360;2022-09-01T15:16:01;94810.22;;;26.79;55.29
34742;BME280;20968;42.696;23.360;2022-09-01T15:18:27;94823.00;;;26.80;55.18
34742;BME280;20968;42.696;23.360;2022-09-01T15:20:52;94823.00;;;26.80;55.04